Corazon Del Mar — EA3287 — position and weather

sailwx.info

Track history (hours):
 
Tides and Currents Weather Stations Pressure Air Temp Water Temp Dewpoint Dewpoint Depression Visibility Wind Speed Wind Dir Waves Ship Positions

Corazon Del Mar

Last reported at 2018-Jun-25 00:35 UTC. Time now 2018-Jun-25 05:32 UTC.
Position N 37°32' W 000°60'.

Length 21 m.

Type: Fishing. MMSI: 224107670.

Date/timePositionNaut miles runAvg speedWind from/ knotsBaromVisibWave heightAir tempDewpointWater temp
2018-Jun-25 00:35N 37°32' W 000°60'1 8.7
2018-Jun-25 00:25N 37°31' W 000°58'3 8.1
2018-Jun-24 23:59N 37°30' W 000°55'1 2.6
2018-Jun-24 23:29N 37°29' W 000°56'  
2018-Jun-22 05:19N 37°29' W 000°58'3 9.0
2018-Jun-22 04:59N 37°29' W 000°55'1 1.2
2018-Jun-22 04:24N 37°29' W 000°54'0 0.1
2018-Jun-22 03:59N 37°29' W 000°54'3 7.1
2018-Jun-22 03:30N 37°29' W 000°58'2 3.6
2018-Jun-22 02:54N 37°31' W 000°56'4 9.0
2018-Jun-22 02:29N 37°31' W 000°51'4 8.8
2018-Jun-22 02:01N 37°30' W 000°46'2 3.9
2018-Jun-22 01:30N 37°31' W 000°44'3 6.6
2018-Jun-22 01:00N 37°33' W 000°41'5 9.6
2018-Jun-22 00:30N 37°37' W 000°37'2 4.0
2018-Jun-22 00:01N 37°36' W 000°39'4 7.8
2018-Jun-21 23:30N 37°33' W 000°42'4 8.6
2018-Jun-21 23:01N 37°31' W 000°47'4 8.9
2018-Jun-21 22:31N 37°30' W 000°52'4 0.2
2018-Jun-21 04:04N 37°32' W 000°57'1 9.6
2018-Jun-21 03:59N 37°33' W 000°56'3 5.6
2018-Jun-21 03:23N 37°31' W 000°52'1 1.2
2018-Jun-21 02:34N 37°30' W 000°51'0 0.1
2018-Jun-21 02:30N 37°30' W 000°51'0 0.1
2018-Jun-21 01:59N 37°30' W 000°51'0 0.1
2018-Jun-21 01:29N 37°30' W 000°51'0 0.2
2018-Jun-21 01:00N 37°30' W 000°51'0 0.2
2018-Jun-21 00:29N 37°30' W 000°51'3 5.6
2018-Jun-20 23:59N 37°30' W 000°55'31 6.1
2018-Jun-20 18:54N 37°24' W 001°33'1 0.1
2018-Jun-20 04:56N 37°24' W 001°35'1 0.1
2018-Jun-19 18:57N 37°24' W 001°33'1 0.1
2018-Jun-19 06:13N 37°24' W 001°35'28 8.9
2018-Jun-19 03:03N 37°32' W 001°00'1 8.9
2018-Jun-19 02:59N 37°31' W 000°60'27 7.2
2018-Jun-18 23:12N 37°24' W 001°33'1 7.1
2018-Jun-18 23:00N 37°24' W 001°35'0 0.1
2018-Jun-18 22:30N 37°24' W 001°35'0 0.0
2018-Jun-18 22:00N 37°24' W 001°35'0 0.0
2018-Jun-18 21:26N 37°24' W 001°35'0 0.0
2018-Jun-18 20:33N 37°24' W 001°35'0 0.0
2018-Jun-18 20:30N 37°24' W 001°35'0 0.0
2018-Jun-18 20:00N 37°24' W 001°35'  
Track history (hours):
 
Tides and Currents Weather Stations Pressure Air Temp Water Temp Dewpoint Dewpoint Depression Visibility Wind Speed Wind Dir Waves Ship Positions

Corazon Del Mar

Last reported at 2018-Jun-25 00:35 UTC. Time now 2018-Jun-25 05:32 UTC.
Position N 37°32' W 000°60'.

Length 21 m.

Type: Fishing. MMSI: 224107670.

Date/timePositionNaut miles runAvg speedWind from/ knotsBaromVisibWave heightAir tempDewpointWater temp
2018-Jun-25 00:35N 37°32' W 000°60'1 8.7
2018-Jun-25 00:25N 37°31' W 000°58'3 8.1
2018-Jun-24 23:59N 37°30' W 000°55'1 2.6
2018-Jun-24 23:29N 37°29' W 000°56'  
2018-Jun-22 05:19N 37°29' W 000°58'3 9.0
2018-Jun-22 04:59N 37°29' W 000°55'1 1.2
2018-Jun-22 04:24N 37°29' W 000°54'0 0.1
2018-Jun-22 03:59N 37°29' W 000°54'3 7.1
2018-Jun-22 03:30N 37°29' W 000°58'2 3.6
2018-Jun-22 02:54N 37°31' W 000°56'4 9.0
2018-Jun-22 02:29N 37°31' W 000°51'4 8.8
2018-Jun-22 02:01N 37°30' W 000°46'2 3.9
2018-Jun-22 01:30N 37°31' W 000°44'3 6.6
2018-Jun-22 01:00N 37°33' W 000°41'5 9.6
2018-Jun-22 00:30N 37°37' W 000°37'2 4.0
2018-Jun-22 00:01N 37°36' W 000°39'4 7.8
2018-Jun-21 23:30N 37°33' W 000°42'4 8.6
2018-Jun-21 23:01N 37°31' W 000°47'4 8.9
2018-Jun-21 22:31N 37°30' W 000°52'4 0.2
2018-Jun-21 04:04N 37°32' W 000°57'1 9.6
2018-Jun-21 03:59N 37°33' W 000°56'3 5.6
2018-Jun-21 03:23N 37°31' W 000°52'1 1.2
2018-Jun-21 02:34N 37°30' W 000°51'0 0.1
2018-Jun-21 02:30N 37°30' W 000°51'0 0.1
2018-Jun-21 01:59N 37°30' W 000°51'0 0.1
2018-Jun-21 01:29N 37°30' W 000°51'0 0.2
2018-Jun-21 01:00N 37°30' W 000°51'0 0.2
2018-Jun-21 00:29N 37°30' W 000°51'3 5.6
2018-Jun-20 23:59N 37°30' W 000°55'31 6.1
2018-Jun-20 18:54N 37°24' W 001°33'1 0.1
2018-Jun-20 04:56N 37°24' W 001°35'1 0.1
2018-Jun-19 18:57N 37°24' W 001°33'1 0.1
2018-Jun-19 06:13N 37°24' W 001°35'28 8.9
2018-Jun-19 03:03N 37°32' W 001°00'1 8.9
2018-Jun-19 02:59N 37°31' W 000°60'27 7.2
2018-Jun-18 23:12N 37°24' W 001°33'1 7.1
2018-Jun-18 23:00N 37°24' W 001°35'0 0.1
2018-Jun-18 22:30N 37°24' W 001°35'0 0.0
2018-Jun-18 22:00N 37°24' W 001°35'0 0.0
2018-Jun-18 21:26N 37°24' W 001°35'0 0.0
2018-Jun-18 20:33N 37°24' W 001°35'0 0.0
2018-Jun-18 20:30N 37°24' W 001°35'0 0.0
2018-Jun-18 20:00N 37°24' W 001°35'  

Dump ship's entire track history